Time;durP1;ratioP1;P1;durP2;ratioP2;P2;SDS_P1;SDS_P2;PMS_P1;PMS_P2;Temp;Humidity;BMP_temperature;BMP_pressure;BME280_temperature;BME280_humidity;BME280_pressure;Samples;Min_cycle;Max_cycle;Signal;HPM_P1;HPM_P2
2022/12/14 00:01:58;;;;;;;65.55;36.05;;;;;;;-2.18;79.52;100600.27;123983;1099;104645;-79
2022/12/14 00:04:29;;;;;;;69.05;36.60;;;;;;;-2.18;79.97;100608.88;124000;1099;104454;-79
2022/12/14 00:07:00;;;;;;;66.95;36.45;;;;;;;-2.19;79.14;100613.87;123990;1099;104265;-80
2022/12/14 00:09:31;;;;;;;61.73;33.40;;;;;;;-2.18;79.66;100607.98;123919;1099;104242;-79
2022/12/14 00:12:02;;;;;;;57.40;30.40;;;;;;;-2.17;80.35;100617.47;124018;1099;104299;-79
2022/12/14 00:14:34;;;;;;;62.75;32.80;;;;;;;-2.18;80.43;100615.69;123952;1099;104207;-79
2022/12/14 00:17:05;;;;;;;58.43;30.53;;;;;;;-2.21;80.10;100616.31;123704;1099;104373;-80
2022/12/14 00:19:36;;;;;;;55.30;27.60;;;;;;;-2.21;80.36;100616.31;123915;1099;104223;-79
2022/12/14 00:22:07;;;;;;;57.83;30.00;;;;;;;-2.18;79.32;100620.84;123929;1099;104392;-79
2022/12/14 00:24:38;;;;;;;58.50;31.00;;;;;;;-2.17;79.57;100627.76;123910;1099;104272;-79
2022/12/14 00:27:09;;;;;;;55.80;29.30;;;;;;;-2.16;80.49;100624.44;123935;1099;104252;-79
2022/12/14 00:29:41;;;;;;;54.80;28.50;;;;;;;-2.15;79.64;100633.03;123935;1099;104316;-80
2022/12/14 00:32:12;;;;;;;57.33;28.27;;;;;;;-2.16;79.92;100634.72;123880;1099;104268;-79
2022/12/14 00:34:43;;;;;;;57.47;29.77;;;;;;;-2.19;80.48;100630.20;123802;1099;104274;-80
2022/12/14 00:37:14;;;;;;;55.43;28.17;;;;;;;-2.21;80.45;100631.73;123901;1099;104347;-80
2022/12/14 00:39:45;;;;;;;52.20;27.97;;;;;;;-2.23;80.84;100640.07;123618;1099;104251;-81
2022/12/14 00:42:16;;;;;;;57.00;30.27;;;;;;;-2.23;79.64;100637.50;123995;1099;104402;-81
2022/12/14 00:44:47;;;;;;;61.63;31.13;;;;;;;-2.22;79.75;100640.20;123829;1098;104252;-80
2022/12/14 00:47:19;;;;;;;59.27;30.60;;;;;;;-2.22;79.84;100640.20;123888;1099;104265;-80
2022/12/14 00:49:50;;;;;;;58.50;30.77;;;;;;;-2.23;80.08;100640.07;123850;1099;104650;-80
2022/12/14 00:52:21;;;;;;;61.23;30.87;;;;;;;-2.26;80.30;100640.72;123943;1099;104265;-80
2022/12/14 00:54:52;;;;;;;58.20;30.03;;;;;;;-2.30;80.33;100636.06;123797;1099;104383;-80
2022/12/14 00:57:23;;;;;;;57.67;29.10;;;;;;;-2.32;80.32;100645.32;123847;1099;104309;-80
2022/12/14 00:59:54;;;;;;;57.83;30.33;;;;;;;-2.33;79.93;100650.33;123964;1099;104259;-80
2022/12/14 01:02:26;;;;;;;57.80;29.63;;;;;;;-2.35;79.75;100655.33;123596;1096;104354;-80
2022/12/14 01:04:58;;;;;;;54.63;27.77;;;;;;;-2.37;80.06;100650.05;123871;1099;104268;-79
2022/12/14 01:07:29;;;;;;;53.90;27.97;;;;;;;-2.39;80.40;100650.66;123859;1099;104185;-79
2022/12/14 01:10:00;;;;;;;61.83;31.63;;;;;;;-2.40;80.06;100667.77;123822;1099;104283;-80
2022/12/14 01:12:31;;;;;;;76.90;35.30;;;;;;;-2.38;80.75;100666.22;123907;1098;104350;-79
2022/12/14 01:15:03;;;;;;;89.00;35.73;;;;;;;-2.38;80.15;100666.22;123649;1099;104204;-79
2022/12/14 01:17:37;;;;;;;73.53;32.63;;;;;;;-2.39;79.79;100668.66;123831;1099;104348;-80
2022/12/14 01:20:10;;;;;;;76.27;30.47;;;;;;;-2.44;79.97;100663.10;123873;1098;104316;-79
2022/12/14 01:22:41;;;;;;;76.93;32.70;;;;;;;-2.48;80.22;100661.02;123991;1099;104242;-80
2022/12/14 01:25:13;;;;;;;89.30;35.50;;;;;;;-2.50;80.54;100671.94;123829;1099;104393;-80
2022/12/14 01:27:44;;;;;;;70.20;33.10;;;;;;;-2.54;80.41;100666.52;123859;1099;104241;-80
2022/12/14 01:30:18;;;;;;;73.57;34.77;;;;;;;-2.54;81.15;100665.59;123724;1099;104273;-80
2022/12/14 01:32:49;;;;;;;80.70;34.97;;;;;;;-2.54;80.67;100665.59;123911;1099;104351;-79
2022/12/14 01:35:20;;;;;;;70.77;34.43;;;;;;;-2.53;80.87;100665.73;123783;1099;104271;-80
2022/12/14 01:37:51;;;;;;;62.13;31.23;;;;;;;-2.55;80.31;100663.81;123897;1099;104303;-80
2022/12/14 01:40:22;;;;;;;61.73;31.83;;;;;;;-2.56;80.39;100664.56;123916;1099;104255;-80
2022/12/14 01:42:53;;;;;;;61.97;31.27;;;;;;;-2.57;80.99;100660.18;124018;1099;104258;-79
2022/12/14 01:45:24;;;;;;;61.23;30.83;;;;;;;-2.58;79.97;100668.67;123936;1099;104278;-80
2022/12/14 01:48:02;;;;;;;62.80;30.77;;;;;;;-2.62;80.92;100667.47;123770;1099;104278;-80
2022/12/14 01:50:38;;;;;;;52.67;27.57;;;;;;;-2.64;80.01;100666.44;123822;1099;104229;-79
2022/12/14 01:53:14;;;;;;;56.97;28.73;;;;;;;-2.69;80.82;100672.84;123798;1099;104242;-80
2022/12/14 01:55:49;;;;;;;57.70;30.27;;;;;;;-2.71;79.81;100669.23;123776;1099;104168;-80
2022/12/14 01:58:24;;;;;;;59.63;30.07;;;;;;;-2.73;80.99;100666.53;123907;1099;104243;-79
2022/12/14 02:00:59;;;;;;;59.03;30.77;;;;;;;-2.71;80.70;100667.56;123778;1099;104277;-80
2022/12/14 02:03:37;;;;;;;65.57;31.70;;;;;;;-2.72;80.15;100667.42;123500;1099;104242;-79
2022/12/14 02:06:12;;;;;;;59.27;31.47;;;;;;;-2.75;81.07;100675.73;123884;1099;104253;-79
2022/12/14 02:08:47;;;;;;;67.33;34.67;;;;;;;-2.76;80.36;100679.09;123792;1098;104181;-79
2022/12/14 02:11:28;;;;;;;64.43;32.47;;;;;;;-2.74;80.95;100676.66;123942;1099;104344;-79
2022/12/14 02:13:59;;;;;;;68.30;34.97;;;;;;;-2.72;80.32;100673.45;123813;1099;104265;-81
2022/12/14 02:16:31;;;;;;;70.63;35.57;;;;;;;-2.71;80.69;100680.41;123789;1099;104345;-79
2022/12/14 02:19:02;;;;;;;65.50;33.85;;;;;;;-2.72;80.99;100685.41;123788;1099;104338;-80
2022/12/14 02:21:50;;;;;;;65.53;34.47;;;;;;;-2.73;80.89;100694.78;123785;1099;104271;-80
2022/12/14 02:25:02;;;;;;;70.90;34.40;;;;;;;-2.70;80.34;100699.28;123868;1099;104326;-79
2022/12/14 02:28:02;;;;;;;59.13;29.70;;;;;;;-2.74;81.41;100694.64;123706;1099;104325;-79
2022/12/14 02:30:39;;;;;;;60.73;30.83;;;;;;;-2.77;80.95;100691.80;123902;1099;104245;-79
2022/12/14 02:33:34;;;;;;;63.80;31.17;;;;;;;-2.77;80.85;100695.25;123827;1099;104809;-80
2022/12/14 02:36:13;;;;;;;66.00;32.60;;;;;;;-2.76;81.68;100693.58;123826;1099;104290;-79
2022/12/14 02:38:53;;;;;;;65.83;32.50;;;;;;;-2.76;80.75;100691.01;123828;1098;104220;-80
2022/12/14 02:41:37;;;;;;;67.83;33.57;;;;;;;-2.80;81.22;100691.52;123699;1099;104264;-80
2022/12/14 02:44:17;;;;;;;65.23;32.17;;;;;;;-2.86;80.66;100694.41;123795;1099;104350;-79
2022/12/14 02:46:57;;;;;;;62.07;30.23;;;;;;;-2.88;80.24;100695.95;123836;1099;104223;-79
2022/12/14 02:49:41;;;;;;;65.47;30.93;;;;;;;-2.90;81.23;100690.67;123766;1099;104277;-79
2022/12/14 02:52:21;;;;;;;62.55;30.15;;;;;;;-2.91;80.41;100696.55;123647;1099;104274;-79
2022/12/14 02:55:00;;;;;;;67.07;32.97;;;;;;;-2.90;81.17;100695.80;123394;1099;104511;-79
2022/12/14 02:57:37;;;;;;;75.23;38.43;;;;;;;-2.90;81.64;100698.37;123560;1099;104255;-80
2022/12/14 03:00:10;;;;;;;79.20;37.83;;;;;;;-2.91;81.29;100695.66;123454;1099;104197;-80
2022/12/14 03:02:43;;;;;;;77.30;37.70;;;;;;;-2.89;81.31;100692.45;123515;1099;104267;-79
2022/12/14 03:05:15;;;;;;;78.87;37.90;;;;;;;-2.90;80.81;100700.02;123716;1099;104294;-79
2022/12/14 03:07:50;;;;;;;79.97;38.43;;;;;;;-2.91;80.98;100693.98;123808;1099;104255;-79
2022/12/14 03:10:30;;;;;;;78.60;36.80;;;;;;;-2.92;81.17;100693.84;123966;1099;104191;-79
2022/12/14 03:13:11;;;;;;;71.63;35.70;;;;;;;-2.91;80.90;100698.23;123854;1099;104281;-79
2022/12/14 03:15:46;;;;;;;67.90;32.70;;;;;;;-2.89;80.64;100701.83;123814;1099;104267;-79
2022/12/14 03:18:17;;;;;;;;;;;;;;;-2.89;81.28;100702.73;123821;1099;104252;-79
2022/12/14 03:20:52;;;;;;;63.33;30.43;;;;;;;-2.87;81.58;100715.70;123972;1098;104236;-79
2022/12/14 03:23:28;;;;;;;59.03;30.60;;;;;;;-2.89;81.73;100722.38;123483;1099;104345;-79
2022/12/14 03:26:05;;;;;;;61.80;29.57;;;;;;;-2.91;80.90;100732.51;123466;1099;104277;-80
2022/12/14 03:28:42;;;;;;;64.40;31.40;;;;;;;-2.93;81.04;100736.61;123675;1099;104184;-79
2022/12/14 03:31:17;;;;;;;57.67;28.97;;;;;;;-2.93;81.16;100734.05;124006;1099;104329;-79
2022/12/14 03:33:53;;;;;;;60.13;29.03;;;;;;;-2.93;81.95;100736.61;123852;1099;104267;-79
2022/12/14 03:36:31;;;;;;;57.77;28.53;;;;;;;-2.94;80.83;100737.36;123844;1099;104616;-79
2022/12/14 03:39:07;;;;;;;60.50;27.83;;;;;;;-2.92;81.58;100747.77;123887;1099;104265;-80
2022/12/14 03:41:45;;;;;;;63.67;31.47;;;;;;;-2.92;81.37;100740.96;123703;1099;104269;-79
2022/12/14 03:44:30;;;;;;;65.47;35.03;;;;;;;-2.90;81.31;100744.59;123449;1099;119016;-80
2022/12/14 03:47:13;;;;;;;68.83;33.33;;;;;;;-2.87;81.04;100743.06;123640;1099;104357;-79
2022/12/14 03:49:56;;;;;;;63.40;30.73;;;;;;;-2.85;82.24;100738.96;123721;1099;104342;-79
2022/12/14 03:52:35;;;;;;;54.50;28.23;;;;;;;-2.86;82.22;100743.20;123782;1099;104802;-80
2022/12/14 03:55:20;;;;;;;64.67;33.67;;;;;;;-2.88;81.70;100744.74;123849;1099;104316;-79
2022/12/14 03:58:05;;;;;;;76.93;37.67;;;;;;;-2.90;81.07;100747.16;123705;1099;104235;-79
2022/12/14 04:00:43;;;;;;;68.05;34.60;;;;;;;-2.92;81.16;100756.37;123594;1098;104274;-79
2022/12/14 04:03:22;;;;;;;69.77;35.80;;;;;;;-2.98;81.54;100752.34;123491;1099;104278;-80
2022/12/14 04:06:00;;;;;;;72.93;36.83;;;;;;;-3.05;81.53;100750.88;123396;1099;104248;-80
2022/12/14 04:08:40;;;;;;;72.53;37.23;;;;;;;-3.09;81.56;100753.90;123411;1099;104223;-79
2022/12/14 04:20:00;;;;;;;79.27;37.70;;;;;;;-3.10;82.16;100744.38;123674;1099;104357;-79
2022/12/14 04:22:38;;;;;;;75.67;37.37;;;;;;;-3.06;81.63;100751.62;123707;1099;104220;-80
2022/12/14 04:29:54;;;;;;;78.50;37.97;;;;;;;-3.00;82.04;100752.19;123640;1099;104341;-79
2022/12/14 04:31:03;;;;;;;73.77;36.37;;;;;;;-2.95;82.20;100758.66;123656;1099;104348;-79
2022/12/14 04:33:48;;;;;;;70.03;35.83;;;;;;;-2.91;82.13;100755.62;123768;1099;104339;-79
2022/12/14 04:36:24;;;;;;;80.60;36.13;;;;;;;-2.89;81.94;100748.95;123749;1099;104267;-79
2022/12/14 04:39:00;;;;;;;101.50;38.50;;;;;;;-2.85;82.38;100747.59;123787;1099;104275;-79
2022/12/14 04:41:36;;;;;;;102.77;39.27;;;;;;;-2.81;82.51;100749.66;123776;1099;104383;-79
2022/12/14 04:44:12;;;;;;;71.77;36.53;;;;;;;-2.77;82.19;100761.14;123689;1099;104399;-79
2022/12/14 04:46:45;;;;;;;73.00;35.87;;;;;;;-2.74;81.90;100764.00;123375;1099;104338;-79
2022/12/14 04:49:23;;;;;;;64.40;31.63;;;;;;;-2.70;82.73;100760.94;123440;1099;104357;-79
2022/12/14 04:52:00;;;;;;;75.53;36.40;;;;;;;-2.66;82.58;100767.28;123473;1099;104338;-79
2022/12/14 04:54:40;;;;;;;72.53;34.83;;;;;;;-2.63;82.14;100772.70;123675;1099;104275;-79
2022/12/14 04:57:20;;;;;;;67.83;34.10;;;;;;;-2.61;82.27;100776.30;123934;1099;104245;-79
2022/12/14 04:59:52;;;;;;;69.73;35.57;;;;;;;-2.58;82.35;100771.45;123848;1099;104242;-80
2022/12/14 05:02:37;;;;;;;68.80;32.20;;;;;;;-2.60;81.97;100772.95;123839;1099;104239;-79
2022/12/14 05:05:16;;;;;;;75.47;35.07;;;;;;;-2.62;81.57;100777.95;123524;1099;104169;-79
2022/12/14 05:07:55;;;;;;;69.00;33.90;;;;;;;-2.63;81.70;100777.84;123670;1099;104670;-79
2022/12/14 05:10:34;;;;;;;75.90;35.60;;;;;;;-2.61;82.78;100779.77;123528;1099;104348;-80
2022/12/14 05:13:10;;;;;;;73.50;35.60;;;;;;;-2.60;82.06;100776.45;123560;1099;104348;-79
2022/12/14 05:15:45;;;;;;;74.70;33.80;;;;;;;-2.61;81.52;100776.30;123836;1099;104344;-79
2022/12/14 05:18:17;;;;;;;71.60;34.37;;;;;;;-2.67;82.36;100776.63;123924;1099;104390;-79
2022/12/14 05:20:49;;;;;;;77.57;35.97;;;;;;;-2.74;81.28;100774.27;123982;1099;104249;-80
2022/12/14 05:23:21;;;;;;;77.37;35.23;;;;;;;-2.79;82.34;100781.55;123775;1099;104201;-79
2022/12/14 05:25:52;;;;;;;74.70;34.25;;;;;;;-2.86;81.99;100773.13;123517;1099;104272;-79
2022/12/14 05:28:23;;;;;;;74.30;35.33;;;;;;;-2.91;81.54;100776.16;123550;1099;104395;-78
2022/12/14 05:30:54;;;;;;;78.00;37.20;;;;;;;-2.96;81.98;100777.41;123591;1099;104370;-77
2022/12/14 05:33:26;;;;;;;70.27;35.53;;;;;;;-2.99;82.03;100789.96;123497;1099;104370;-79
2022/12/14 05:35:57;;;;;;;70.13;35.37;;;;;;;-3.00;82.60;100788.14;123439;1098;104284;-77
2022/12/14 05:38:27;;;;;;;73.70;34.80;;;;;;;-2.99;82.06;100789.96;123508;1099;104329;-78
2022/12/14 05:40:59;;;;;;;77.20;35.87;;;;;;;-2.97;82.58;100790.11;123624;1098;104682;-78
2022/12/14 05:43:30;;;;;;;72.67;34.77;;;;;;;-2.95;83.07;100797.17;123771;1098;104520;-79
2022/12/14 05:46:02;;;;;;;69.27;34.50;;;;;;;-2.93;82.68;100795.67;123549;1099;104348;-77
2022/12/14 05:48:34;;;;;;;75.05;35.65;;;;;;;-2.89;82.68;100795.17;123847;1099;104360;-77
2022/12/14 05:51:12;;;;;;;70.13;34.37;;;;;;;-2.83;82.51;100801.67;123636;1099;104337;-76
2022/12/14 05:53:43;;;;;;;73.10;36.07;;;;;;;-2.76;82.82;100811.73;123881;1099;104617;-78
2022/12/14 05:56:14;;;;;;;72.33;35.23;;;;;;;-2.67;83.39;100812.59;124144;1099;102929;-77
2022/12/14 05:58:48;;;;;;;69.27;34.80;;;;;;;-2.62;82.60;100811.34;123950;1099;104389;-77
2022/12/14 06:01:18;;;;;;;;;;;;;;;-2.55;83.47;100830.83;123955;1099;104310;-78
2022/12/14 06:03:51;;;;;;;71.27;34.00;;;;;;;-2.51;83.18;100820.05;123965;1099;104172;-77
2022/12/14 06:06:22;;;;;;;69.57;36.43;;;;;;;-2.44;83.21;100824.12;123824;1099;104265;-76
2022/12/14 06:08:53;;;;;;;74.67;37.73;;;;;;;-2.40;83.34;100824.55;123962;1099;104306;-78
2022/12/14 06:11:27;;;;;;;74.60;36.43;;;;;;;-2.37;83.05;100829.04;123730;1099;104491;-78
2022/12/14 06:13:57;;;;;;;;;;;;;;;-2.34;82.66;100831.89;123802;1098;104325;-78
2022/12/14 06:16:28;;;;;;;79.33;38.17;;;;;;;-2.33;83.05;100830.25;123750;1099;104239;-77
2022/12/14 06:19:01;;;;;;;77.03;39.37;;;;;;;-2.31;82.92;100829.61;124247;1099;104267;-78
2022/12/14 06:21:35;;;;;;;78.93;40.80;;;;;;;-2.28;83.64;100834.14;124298;1098;104354;-76
2022/12/14 06:24:08;;;;;;;95.87;43.25;;;;;;;-2.25;82.71;100830.17;123781;1099;104268;-75
2022/12/14 06:26:40;;;;;;;82.40;42.77;;;;;;;-2.22;82.35;100830.45;124350;1099;104281;-76
2022/12/14 06:29:16;;;;;;;81.63;40.97;;;;;;;-2.14;82.97;100844.02;124556;1099;104245;-77
2022/12/14 06:31:48;;;;;;;87.53;41.13;;;;;;;-2.07;83.13;100840.32;124494;1099;104623;-79
2022/12/14 06:34:20;;;;;;;77.13;40.77;;;;;;;-2.02;82.99;100839.09;124828;1099;104165;-78
2022/12/14 06:36:52;;;;;;;77.35;39.85;;;;;;;-1.96;82.49;100841.30;124551;1098;104219;-76
2022/12/14 06:39:23;;;;;;;80.17;40.63;;;;;;;-1.94;82.70;100834.65;124148;1099;104242;-77
2022/12/14 06:41:54;;;;;;;73.73;39.33;;;;;;;-1.89;83.62;100842.00;124337;1099;104242;-78
2022/12/14 06:44:27;;;;;;;75.43;39.03;;;;;;;-1.82;82.98;100838.33;124401;1099;104274;-79
2022/12/14 06:46:59;;;;;;;77.15;39.63;;;;;;;-1.76;82.61;100835.39;124498;1099;104223;-78
2022/12/14 06:49:30;;;;;;;77.73;39.80;;;;;;;-1.69;82.88;100840.33;124829;1099;105946;-75
2022/12/14 06:52:02;;;;;;;82.30;38.83;;;;;;;-1.65;83.46;100847.57;124799;1099;104168;-77
2022/12/14 06:54:33;;;;;;;82.40;40.13;;;;;;;-1.61;82.54;100838.45;124321;1099;104256;-77
2022/12/14 06:57:05;;;;;;;79.05;39.50;;;;;;;-1.57;83.23;100841.43;124832;1099;104213;-78
2022/12/14 06:59:37;;;;;;;80.23;38.73;;;;;;;-1.52;83.58;100837.58;124589;1099;103607;-78
2022/12/14 07:02:10;;;;;;;82.83;39.17;;;;;;;-1.50;82.34;100838.61;124881;1099;104223;-76
2022/12/14 07:04:43;;;;;;;81.32;38.88;;;;;;;-1.48;82.27;100826.81;124872;1099;104249;-77
2022/12/14 07:07:16;;;;;;;79.53;37.63;;;;;;;-1.44;82.97;100822.83;124616;1099;103139;-77
2022/12/14 07:09:47;;;;;;;75.07;37.63;;;;;;;-1.41;83.18;100828.24;125091;1099;104251;-78
2022/12/14 07:12:19;;;;;;;85.20;38.60;;;;;;;-1.36;83.50;100831.23;125242;1099;104226;-77
2022/12/14 07:14:51;;;;;;;79.67;38.73;;;;;;;-1.32;83.03;100831.63;125004;1099;104277;-79
2022/12/14 07:17:23;;;;;;;70.60;36.77;;;;;;;-1.28;82.42;100828.57;125220;1098;104179;-78
2022/12/14 07:19:56;;;;;;;78.73;39.37;;;;;;;-1.23;82.60;100826.40;124716;1099;104254;-79
2022/12/14 07:22:27;;;;;;;80.13;42.23;;;;;;;-1.20;83.55;100816.37;124874;1099;102345;-79
2022/12/14 07:24:58;;;;;;;79.90;41.20;;;;;;;-1.11;83.19;100824.91;124877;1099;104235;-77
2022/12/14 07:27:30;;;;;;;76.27;37.70;;;;;;;-1.00;83.70;100830.06;124947;1099;104296;-79
2022/12/14 07:30:01;;;;;;;73.37;36.57;;;;;;;-0.92;83.57;100832.55;124808;1103;104241;-79
2022/12/14 07:32:40;;;;;;;70.83;33.33;;;;;;;-0.80;82.56;100831.79;124839;1098;104309;-78
2022/12/14 07:35:12;;;;;;;66.43;33.07;;;;;;;-0.73;83.49;100832.45;124776;1099;104284;-78
2022/12/14 07:37:50;;;;;;;61.17;30.73;;;;;;;-0.67;83.41;100833.73;124960;1099;104389;-79
2022/12/14 07:40:24;;;;;;;63.83;31.93;;;;;;;-0.61;83.14;100827.45;125317;1099;104239;-80
2022/12/14 07:42:56;;;;;;;62.58;30.17;;;;;;;-0.51;82.21;100823.97;124868;1099;103147;-77
2022/12/14 07:45:31;;;;;;;59.43;28.50;;;;;;;-0.40;82.20;100828.36;125285;1099;104200;-76
2022/12/14 07:48:09;;;;;;;63.90;31.33;;;;;;;-0.34;82.58;100827.06;125178;1098;103210;-79
2022/12/14 07:50:44;;;;;;;57.63;28.13;;;;;;;-0.22;83.02;100826.44;124892;1099;103827;-78
2022/12/14 07:53:16;;;;;;;58.77;29.00;;;;;;;-0.09;83.15;100828.35;124765;1099;104192;-76
2022/12/14 07:55:49;;;;;;;54.07;27.53;;;;;;;0.07;82.68;100827.94;124850;1099;102328;-78
2022/12/14 07:58:23;;;;;;;58.45;28.35;;;;;;;0.07;81.86;100811.56;125100;1099;104337;-78
2022/12/14 08:01:07;;;;;;;55.87;28.17;;;;;;;0.21;82.22;100823.92;124891;1099;104169;-75
2022/12/14 08:03:38;;;;;;;55.57;28.03;;;;;;;0.26;82.19;100825.19;125498;1099;104350;-77
2022/12/14 08:06:17;;;;;;;57.43;28.97;;;;;;;0.34;82.55;100826.73;125210;1099;104168;-77
2022/12/14 08:08:53;;;;;;;54.63;27.37;;;;;;;0.38;82.09;100824.41;125096;1099;103262;-77
2022/12/14 08:11:25;;;;;;;54.90;28.15;;;;;;;0.45;82.62;100824.11;124589;1099;104163;-77
2022/12/14 08:13:56;;;;;;;52.33;25.30;;;;;;;0.50;82.40;100817.66;125059;1098;104172;-76
2022/12/14 08:16:30;;;;;;;47.97;23.23;;;;;;;0.57;81.40;100825.09;125042;1099;104376;-77
2022/12/14 08:19:02;;;;;;;51.90;24.27;;;;;;;0.61;80.93;100823.66;125227;1099;104228;-77
2022/12/14 08:21:37;;;;;;;53.17;26.70;;;;;;;0.68;80.95;100826.86;125372;1099;102471;-78
2022/12/14 08:24:12;;;;;;;53.85;26.35;;;;;;;0.76;82.01;100824.00;124995;1099;104335;-77
2022/12/14 08:26:48;;;;;;;54.03;27.60;;;;;;;0.88;81.91;100822.39;124563;1099;104228;-76
2022/12/14 08:29:21;;;;;;;56.07;28.27;;;;;;;1.00;82.87;100807.86;124944;1099;104248;-77
2022/12/14 08:31:56;;;;;;;62.78;29.50;;;;;;;0.99;81.75;100798.30;125422;1099;104383;-78
2022/12/14 08:34:28;;;;;;;59.13;29.33;;;;;;;1.12;81.66;100812.18;124894;1099;104880;-77
2022/12/14 08:37:02;;;;;;;58.70;29.47;;;;;;;1.18;82.27;100823.00;124449;1099;103311;-77
2022/12/14 08:39:34;;;;;;;58.05;27.93;;;;;;;1.24;82.31;100820.89;124945;1099;104178;-76
2022/12/14 08:42:08;;;;;;;55.03;28.30;;;;;;;1.32;82.56;100824.08;124740;1099;104229;-77
2022/12/14 08:44:43;;;;;;;61.20;32.07;;;;;;;1.39;82.05;100829.84;124911;1099;104179;-76
2022/12/14 08:47:15;;;;;;;54.47;27.57;;;;;;;1.40;81.21;100834.25;125013;1099;104644;-74
2022/12/14 08:49:46;;;;;;;55.53;27.53;;;;;;;1.45;81.37;100839.78;125147;1099;104174;-77
2022/12/14 08:52:20;;;;;;;52.50;27.37;;;;;;;1.52;82.27;100834.27;125530;1099;102334;-78
2022/12/14 08:54:51;;;;;;;54.67;26.33;;;;;;;1.59;81.95;100848.57;125432;1098;104172;-79
2022/12/14 08:57:23;;;;;;;52.43;26.97;;;;;;;1.66;81.70;100847.37;125369;1099;103786;-80
2022/12/14 08:59:57;;;;;;;49.70;25.13;;;;;;;1.72;81.45;100850.44;125343;1099;102349;-79
2022/12/14 09:02:29;;;;;;;48.48;25.00;;;;;;;1.81;81.80;100851.14;125416;1099;104201;-81
2022/12/14 09:05:02;;;;;;;47.63;24.90;;;;;;;1.87;81.67;100850.69;124835;1099;103171;-80
2022/12/14 09:07:35;;;;;;;45.07;23.43;;;;;;;1.92;82.25;100855.44;124755;1099;104373;-78
2022/12/14 09:10:08;;;;;;;45.60;23.25;;;;;;;2.00;81.95;100837.02;125708;1099;103456;-79
2022/12/14 09:12:40;;;;;;;41.60;20.63;;;;;;;2.07;82.19;100839.25;124930;1099;104248;-80
2022/12/14 09:15:24;;;;;;;43.67;21.33;;;;;;;2.11;81.33;100837.01;125058;1099;104866;-79
2022/12/14 09:17:58;;;;;;;40.93;21.10;;;;;;;2.15;81.50;100827.77;125302;1099;104239;-82
2022/12/14 09:20:32;;;;;;;40.43;20.77;;;;;;;2.19;81.19;100822.05;125298;1099;104194;-79
2022/12/14 09:23:04;;;;;;;42.43;21.47;;;;;;;2.27;81.85;100822.62;125302;1099;102440;-79
2022/12/14 09:25:39;;;;;;;40.87;21.80;;;;;;;2.30;81.22;100812.48;125429;1099;104169;-80
2022/12/14 09:28:17;;;;;;;39.93;20.13;;;;;;;2.34;81.92;100811.94;125436;1099;103408;-80
2022/12/14 09:30:57;;;;;;;38.80;20.20;;;;;;;2.40;81.39;100814.98;125018;1098;104284;-77
2022/12/14 09:33:29;;;;;;;41.57;20.33;;;;;;;2.48;82.50;100805.17;124683;1099;104258;-77
2022/12/14 09:36:05;;;;;;;32.53;15.70;;;;;;;2.54;80.18;100796.93;124886;1099;104232;-78
2022/12/14 09:38:40;;;;;;;41.37;20.07;;;;;;;2.59;81.13;100793.00;124913;1099;103055;-79
2022/12/14 09:41:29;;;;;;;31.07;15.47;;;;;;;2.61;80.59;100784.53;124999;1099;104318;-80
2022/12/14 09:44:11;;;;;;;28.90;14.03;;;;;;;2.60;80.22;100787.93;124960;1099;104169;-79
2022/12/14 09:46:53;;;;;;;28.90;13.20;;;;;;;2.64;80.67;100786.45;124860;1099;103312;-78
2022/12/14 09:49:31;;;;;;;24.33;12.67;;;;;;;2.63;80.34;100774.28;126535;1098;102174;-78
2022/12/14 09:52:05;;;;;;;27.77;12.93;;;;;;;2.67;79.94;100773.72;126916;1098;102448;-79
2022/12/14 09:54:39;;;;;;;27.07;11.80;;;;;;;2.70;79.72;100779.12;126844;1098;102274;-79
2022/12/14 09:57:18;;;;;;;24.77;12.10;;;;;;;2.71;76.95;100770.53;126893;1099;102718;-79
2022/12/14 09:59:52;;;;;;;26.10;11.63;;;;;;;2.73;77.89;100770.64;125318;1098;104338;-80
2022/12/14 10:02:41;;;;;;;22.83;10.03;;;;;;;2.71;76.96;100760.17;124995;1099;104182;-78
2022/12/14 10:05:33;;;;;;;22.85;10.40;;;;;;;2.73;77.78;100750.83;125079;1099;103150;-81
2022/12/14 10:08:13;;;;;;;25.67;11.63;;;;;;;2.81;78.74;100748.78;125092;1099;102473;-79
2022/12/14 10:10:56;;;;;;;22.23;10.30;;;;;;;2.85;78.34;100749.11;124691;1099;103004;-79
2022/12/14 10:13:36;;;;;;;20.97;9.37;;;;;;;2.85;77.22;100754.30;125017;1099;103219;-78
2022/12/14 10:16:22;;;;;;;22.77;10.57;;;;;;;2.81;76.08;100744.49;125228;1099;104233;-75
2022/12/14 10:19:08;;;;;;;22.43;10.77;;;;;;;2.81;77.83;100746.20;124662;1099;104278;-74
2022/12/14 10:21:51;;;;;;;20.47;9.80;;;;;;;2.80;76.82;100741.79;125014;1099;104149;-76
2022/12/14 10:24:27;;;;;;;22.57;10.57;;;;;;;2.80;77.01;100745.27;125087;1099;104223;-76
2022/12/14 10:27:01;;;;;;;20.60;10.17;;;;;;;2.84;77.53;100751.59;125151;1099;102004;-76
2022/12/14 10:29:42;;;;;;;25.10;10.20;;;;;;;2.85;77.60;100743.00;125027;1099;103097;-76
2022/12/14 10:32:29;;;;;;;23.13;10.90;;;;;;;2.90;77.56;100741.66;125467;1099;104240;-76
2022/12/14 10:35:01;;;;;;;24.17;10.43;;;;;;;2.98;78.31;100740.49;124762;1098;104245;-76
2022/12/14 10:37:38;;;;;;;22.20;10.17;;;;;;;3.02;75.65;100736.41;124884;1099;104182;-76
2022/12/14 10:40:24;;;;;;;23.50;10.73;;;;;;;3.03;77.16;100730.45;125259;1099;104127;-74
2022/12/14 10:43:27;;;;;;;26.00;11.73;;;;;;;3.05;77.24;100741.81;124861;1098;107821;-79
2022/12/14 10:46:11;;;;;;;24.43;11.47;;;;;;;3.12;77.12;100736.27;125129;1099;104198;-78
2022/12/14 10:48:59;;;;;;;22.43;10.40;;;;;;;3.19;77.53;100753.14;125173;1099;104185;-77
2022/12/14 10:51:37;;;;;;;21.13;10.07;;;;;;;3.20;76.37;100749.77;125318;1099;102479;-76
2022/12/14 10:54:20;;;;;;;23.97;10.07;;;;;;;3.16;74.64;100743.45;125154;1099;104023;-76
2022/12/14 10:56:52;;;;;;;25.17;9.70;;;;;;;3.10;75.52;100740.46;124992;1099;104172;-77
2022/12/14 10:59:33;;;;;;;20.57;9.73;;;;;;;3.12;76.60;100743.16;125252;1099;104160;-76
2022/12/14 11:02:12;;;;;;;23.60;9.93;;;;;;;3.12;75.19;100746.64;125207;1099;103059;-78
2022/12/14 11:04:51;;;;;;;23.03;10.30;;;;;;;3.08;75.84;100734.25;125326;1099;104793;-77
2022/12/14 11:07:26;;;;;;;21.30;9.37;;;;;;;3.09;74.65;100741.24;124758;1099;104222;-78
2022/12/14 11:10:17;;;;;;;24.07;10.13;;;;;;;3.06;75.62;100741.03;124634;1099;104268;-80
2022/12/14 11:13:02;;;;;;;19.03;9.13;;;;;;;3.08;74.33;100733.36;125144;1099;104181;-78
2022/12/14 11:15:39;;;;;;;20.53;9.97;;;;;;;3.03;75.03;100736.52;125138;1099;104255;-79
2022/12/14 11:18:27;;;;;;;20.97;9.73;;;;;;;2.97;75.88;100723.12;125150;1099;104316;-78
2022/12/14 11:21:00;;;;;;;23.93;10.30;;;;;;;2.92;75.28;100710.66;124952;1099;103376;-79
2022/12/14 11:23:41;;;;;;;22.40;10.30;;;;;;;2.92;75.96;100708.07;125300;1099;107851;-79
2022/12/14 11:26:18;;;;;;;19.75;9.18;;;;;;;2.91;74.67;100706.27;124941;1100;102149;-78
2022/12/14 11:28:53;;;;;;;19.83;9.10;;;;;;;2.91;74.72;100704.55;125190;1099;104252;-77
2022/12/14 11:31:32;;;;;;;21.70;9.90;;;;;;;2.93;75.73;100705.58;124814;1099;102814;-78
2022/12/14 11:34:06;;;;;;;20.40;9.33;;;;;;;2.96;75.84;100692.84;125261;1099;118320;-77
2022/12/14 11:36:37;;;;;;;;;;;;;;;2.98;75.36;100695.53;125262;1099;103040;-77
2022/12/14 11:39:22;;;;;;;23.53;9.77;;;;;;;2.98;75.46;100688.65;125007;1099;102169;-76
2022/12/14 11:42:03;;;;;;;18.90;9.10;;;;;;;2.94;75.10;100691.81;125003;1099;104286;-77
2022/12/14 11:44:37;;;;;;;22.40;10.00;;;;;;;2.90;74.56;100694.08;125076;1099;103691;-77
2022/12/14 11:47:12;;;;;;;;;;;;;;;2.81;70.84;100694.36;124745;1099;104232;-77
2022/12/14 11:49:49;;;;;;;23.27;10.28;;;;;;;2.74;72.16;100698.19;125377;1099;104296;-78